sensor_id;sensor_type;location;lat;lon;timestamp;pressure;altitude;pressure_sealevel;temperature;humidity
79174;BME280;68599;49.142;9.124;2024-01-30T00:01:55;101145.64;;;1.34;69.43
79174;BME280;68599;49.142;9.124;2024-01-30T00:04:22;101146.40;;;1.34;70.11
79174;BME280;68599;49.142;9.124;2024-01-30T00:06:50;101143.48;;;1.37;69.22
79174;BME280;68599;49.142;9.124;2024-01-30T00:09:19;101139.45;;;1.34;69.19
79174;BME280;68599;49.142;9.124;2024-01-30T00:11:46;101141.72;;;1.33;69.14
79174;BME280;68599;49.142;9.124;2024-01-30T00:14:12;101148.34;;;1.34;69.26
79174;BME280;68599;49.142;9.124;2024-01-30T00:16:39;101142.55;;;1.36;69.43
79174;BME280;68599;49.142;9.124;2024-01-30T00:19:06;101145.90;;;1.35;68.92
79174;BME280;68599;49.142;9.124;2024-01-30T00:21:35;101146.21;;;1.34;68.81
79174;BME280;68599;49.142;9.124;2024-01-30T00:24:01;101147.73;;;1.36;69.08
79174;BME280;68599;49.142;9.124;2024-01-30T00:26:28;101150.34;;;1.39;69.44
79174;BME280;68599;49.142;9.124;2024-01-30T00:28:55;101150.30;;;1.42;69.04
79174;BME280;68599;49.142;9.124;2024-01-30T00:31:21;101148.13;;;1.41;69.18
79174;BME280;68599;49.142;9.124;2024-01-30T00:33:48;101149.46;;;1.43;69.20
79174;BME280;68599;49.142;9.124;2024-01-30T00:36:14;101149.23;;;1.46;68.91
79174;BME280;68599;49.142;9.124;2024-01-30T00:38:41;101143.80;;;1.47;68.77
79174;BME280;68599;49.142;9.124;2024-01-30T00:41:08;101147.88;;;1.47;69.33
79174;BME280;68599;49.142;9.124;2024-01-30T00:43:36;101150.45;;;1.50;69.12
79174;BME280;68599;49.142;9.124;2024-01-30T00:46:02;101150.31;;;1.51;68.97
79174;BME280;68599;49.142;9.124;2024-01-30T00:48:30;101151.55;;;1.50;69.17
79174;BME280;68599;49.142;9.124;2024-01-30T00:50:56;101151.56;;;1.47;69.41
79174;BME280;68599;49.142;9.124;2024-01-30T00:53:23;101151.39;;;1.39;69.21
79174;BME280;68599;49.142;9.124;2024-01-30T00:55:49;101151.87;;;1.37;68.98
79174;BME280;68599;49.142;9.124;2024-01-30T00:58:16;101154.46;;;1.32;71.04
79174;BME280;68599;49.142;9.124;2024-01-30T01:00:43;101151.03;;;1.31;70.27
79174;BME280;68599;49.142;9.124;2024-01-30T01:03:10;101150.13;;;1.30;71.26
79174;BME280;68599;49.142;9.124;2024-01-30T01:05:36;101149.17;;;1.33;70.63
79174;BME280;68599;49.142;9.124;2024-01-30T01:08:04;101145.70;;;1.35;70.55
79174;BME280;68599;49.142;9.124;2024-01-30T01:10:30;101147.80;;;1.37;69.88
79174;BME280;68599;49.142;9.124;2024-01-30T01:12:57;101152.45;;;1.39;69.73
79174;BME280;68599;49.142;9.124;2024-01-30T01:15:24;101151.44;;;1.40;69.98
79174;BME280;68599;49.142;9.124;2024-01-30T01:17:55;101150.98;;;1.41;69.78
79174;BME280;68599;49.142;9.124;2024-01-30T01:20:22;101153.11;;;1.42;69.51
79174;BME280;68599;49.142;9.124;2024-01-30T01:22:48;101154.13;;;1.40;69.96
79174;BME280;68599;49.142;9.124;2024-01-30T01:25:15;101155.61;;;1.42;69.96
79174;BME280;68599;49.142;9.124;2024-01-30T01:27:42;101155.77;;;1.41;69.98
79174;BME280;68599;49.142;9.124;2024-01-30T01:30:10;101152.29;;;1.43;70.21
79174;BME280;68599;49.142;9.124;2024-01-30T01:32:38;101156.41;;;1.40;71.91
79174;BME280;68599;49.142;9.124;2024-01-30T01:35:05;101160.03;;;1.29;71.45
79174;BME280;68599;49.142;9.124;2024-01-30T01:37:32;101159.88;;;1.22;71.39
79174;BME280;68599;49.142;9.124;2024-01-30T01:39:59;101156.98;;;1.21;72.02
79174;BME280;68599;49.142;9.124;2024-01-30T01:42:26;101156.45;;;1.20;72.13
79174;BME280;68599;49.142;9.124;2024-01-30T01:44:53;101158.19;;;1.16;72.72
79174;BME280;68599;49.142;9.124;2024-01-30T01:47:20;101159.00;;;1.14;72.17
79174;BME280;68599;49.142;9.124;2024-01-30T01:49:47;101159.43;;;1.16;71.61
79174;BME280;68599;49.142;9.124;2024-01-30T01:52:14;101156.07;;;1.16;70.45
79174;BME280;68599;49.142;9.124;2024-01-30T01:54:41;101155.67;;;1.11;70.51
79174;BME280;68599;49.142;9.124;2024-01-30T01:57:08;101155.36;;;1.12;70.14
79174;BME280;68599;49.142;9.124;2024-01-30T01:59:35;101155.14;;;1.11;70.22
79174;BME280;68599;49.142;9.124;2024-01-30T02:02:03;101155.83;;;1.11;70.69
79174;BME280;68599;49.142;9.124;2024-01-30T02:04:31;101154.31;;;1.12;70.07
79174;BME280;68599;49.142;9.124;2024-01-30T02:06:58;101150.83;;;1.10;70.25
79174;BME280;68599;49.142;9.124;2024-01-30T02:09:25;101150.21;;;1.08;69.95
79174;BME280;68599;49.142;9.124;2024-01-30T02:11:51;101151.64;;;1.05;69.88
79174;BME280;68599;49.142;9.124;2024-01-30T02:14:18;101155.57;;;1.01;70.67
79174;BME280;68599;49.142;9.124;2024-01-30T02:16:45;101148.33;;;1.02;70.93
79174;BME280;68599;49.142;9.124;2024-01-30T02:19:11;101152.80;;;1.02;71.81
79174;BME280;68599;49.142;9.124;2024-01-30T02:21:38;101148.76;;;1.03;71.09
79174;BME280;68599;49.142;9.124;2024-01-30T02:24:06;101151.64;;;1.05;72.51
79174;BME280;68599;49.142;9.124;2024-01-30T02:26:32;101151.73;;;1.03;71.82
79174;BME280;68599;49.142;9.124;2024-01-30T02:28:59;101152.88;;;1.01;72.08
79174;BME280;68599;49.142;9.124;2024-01-30T02:31:26;101151.88;;;1.02;71.34
79174;BME280;68599;49.142;9.124;2024-01-30T02:33:53;101156.20;;;1.03;71.33
79174;BME280;68599;49.142;9.124;2024-01-30T02:36:19;101148.41;;;1.04;71.30
79174;BME280;68599;49.142;9.124;2024-01-30T02:38:46;101149.55;;;1.06;72.35
79174;BME280;68599;49.142;9.124;2024-01-30T02:41:13;101148.52;;;1.06;73.48
79174;BME280;68599;49.142;9.124;2024-01-30T02:43:40;101145.27;;;1.05;75.38
79174;BME280;68599;49.142;9.124;2024-01-30T02:46:07;101145.76;;;1.04;75.91
79174;BME280;68599;49.142;9.124;2024-01-30T02:48:33;101148.72;;;1.07;74.79
79174;BME280;68599;49.142;9.124;2024-01-30T02:51:00;101146.49;;;1.08;73.10
79174;BME280;68599;49.142;9.124;2024-01-30T02:53:27;101147.95;;;1.09;73.63
79174;BME280;68599;49.142;9.124;2024-01-30T02:55:53;101151.84;;;1.13;72.55
79174;BME280;68599;49.142;9.124;2024-01-30T02:58:19;101147.39;;;1.12;73.88
79174;BME280;68599;49.142;9.124;2024-01-30T03:00:46;101148.57;;;1.15;73.60
79174;BME280;68599;49.142;9.124;2024-01-30T03:03:13;101149.84;;;1.16;73.47
79174;BME280;68599;49.142;9.124;2024-01-30T03:05:40;101150.33;;;1.18;72.39
79174;BME280;68599;49.142;9.124;2024-01-30T03:08:06;101147.15;;;1.19;73.13
79174;BME280;68599;49.142;9.124;2024-01-30T03:10:33;101148.95;;;1.19;72.03
79174;BME280;68599;49.142;9.124;2024-01-30T03:12:59;101146.63;;;1.15;72.81
79174;BME280;68599;49.142;9.124;2024-01-30T03:15:26;101146.45;;;1.16;72.49
79174;BME280;68599;49.142;9.124;2024-01-30T03:17:53;101143.16;;;1.17;72.31
79174;BME280;68599;49.142;9.124;2024-01-30T03:20:20;101144.68;;;1.19;72.08
79174;BME280;68599;49.142;9.124;2024-01-30T03:22:47;101143.42;;;1.19;72.35
79174;BME280;68599;49.142;9.124;2024-01-30T03:25:13;101145.77;;;1.20;71.98
79174;BME280;68599;49.142;9.124;2024-01-30T03:27:40;101149.51;;;1.20;72.09
79174;BME280;68599;49.142;9.124;2024-01-30T03:30:07;101147.27;;;1.18;72.23
79174;BME280;68599;49.142;9.124;2024-01-30T03:32:34;101147.98;;;1.14;72.96
79174;BME280;68599;49.142;9.124;2024-01-30T03:35:01;101150.20;;;1.12;72.35
79174;BME280;68599;49.142;9.124;2024-01-30T03:37:28;101144.95;;;1.09;71.99
79174;BME280;68599;49.142;9.124;2024-01-30T03:39:54;101141.85;;;1.04;72.93
79174;BME280;68599;49.142;9.124;2024-01-30T03:42:21;101142.94;;;1.01;72.73
79174;BME280;68599;49.142;9.124;2024-01-30T03:44:48;101145.55;;;1.00;72.83
79174;BME280;68599;49.142;9.124;2024-01-30T03:47:18;101151.02;;;0.99;72.60
79174;BME280;68599;49.142;9.124;2024-01-30T03:49:45;101151.08;;;1.00;72.11
79174;BME280;68599;49.142;9.124;2024-01-30T03:52:11;101151.44;;;0.96;72.96
79174;BME280;68599;49.142;9.124;2024-01-30T03:54:38;101154.38;;;0.94;73.52
79174;BME280;68599;49.142;9.124;2024-01-30T03:57:05;101156.41;;;0.93;73.40
79174;BME280;68599;49.142;9.124;2024-01-30T03:59:32;101154.06;;;0.91;72.85
79174;BME280;68599;49.142;9.124;2024-01-30T04:01:59;101155.14;;;0.92;72.51
79174;BME280;68599;49.142;9.124;2024-01-30T04:04:26;101148.33;;;0.94;72.48
79174;BME280;68599;49.142;9.124;2024-01-30T04:06:53;101146.55;;;0.94;73.52
79174;BME280;68599;49.142;9.124;2024-01-30T04:09:20;101147.04;;;0.93;72.94
79174;BME280;68599;49.142;9.124;2024-01-30T04:11:46;101150.95;;;0.89;73.99
79174;BME280;68599;49.142;9.124;2024-01-30T04:14:13;101151.67;;;0.90;73.40
79174;BME280;68599;49.142;9.124;2024-01-30T04:16:40;101148.98;;;0.89;74.11
79174;BME280;68599;49.142;9.124;2024-01-30T04:19:06;101147.67;;;0.88;75.07
79174;BME280;68599;49.142;9.124;2024-01-30T04:21:33;101144.96;;;0.87;75.71
79174;BME280;68599;49.142;9.124;2024-01-30T04:24:00;101149.22;;;0.83;76.93
79174;BME280;68599;49.142;9.124;2024-01-30T04:26:26;101147.54;;;0.77;77.35
79174;BME280;68599;49.142;9.124;2024-01-30T04:28:54;101147.34;;;0.76;76.84
79174;BME280;68599;49.142;9.124;2024-01-30T04:31:20;101149.59;;;0.79;76.58
79174;BME280;68599;49.142;9.124;2024-01-30T04:33:47;101151.02;;;0.83;75.70
79174;BME280;68599;49.142;9.124;2024-01-30T04:36:14;101148.36;;;0.87;75.98
79174;BME280;68599;49.142;9.124;2024-01-30T04:38:40;101145.69;;;0.91;74.66
79174;BME280;68599;49.142;9.124;2024-01-30T04:41:07;101151.85;;;0.90;75.50
79174;BME280;68599;49.142;9.124;2024-01-30T04:43:34;101151.27;;;0.89;75.65
79174;BME280;68599;49.142;9.124;2024-01-30T04:46:01;101153.30;;;0.87;76.32
79174;BME280;68599;49.142;9.124;2024-01-30T04:48:28;101152.00;;;0.85;76.67
79174;BME280;68599;49.142;9.124;2024-01-30T04:50:55;101154.53;;;0.87;75.51
79174;BME280;68599;49.142;9.124;2024-01-30T04:53:22;101154.35;;;0.86;75.96
79174;BME280;68599;49.142;9.124;2024-01-30T04:55:49;101157.05;;;0.88;75.70
79174;BME280;68599;49.142;9.124;2024-01-30T04:58:15;101157.98;;;0.88;75.38
79174;BME280;68599;49.142;9.124;2024-01-30T05:00:43;101163.59;;;0.90;75.13
79174;BME280;68599;49.142;9.124;2024-01-30T05:03:10;101157.38;;;0.90;75.07
79174;BME280;68599;49.142;9.124;2024-01-30T05:05:36;101158.79;;;0.86;76.20
79174;BME280;68599;49.142;9.124;2024-01-30T05:08:03;101162.81;;;0.81;76.24
79174;BME280;68599;49.142;9.124;2024-01-30T05:10:30;101163.29;;;0.80;75.38
79174;BME280;68599;49.142;9.124;2024-01-30T05:12:57;101159.88;;;0.79;74.54
79174;BME280;68599;49.142;9.124;2024-01-30T05:15:23;101160.46;;;0.76;75.31
79174;BME280;68599;49.142;9.124;2024-01-30T05:17:50;101160.31;;;0.77;74.93
79174;BME280;68599;49.142;9.124;2024-01-30T05:20:16;101161.55;;;0.80;74.67
79174;BME280;68599;49.142;9.124;2024-01-30T05:22:44;101164.91;;;0.80;74.86
79174;BME280;68599;49.142;9.124;2024-01-30T05:25:14;101165.61;;;0.80;75.12
79174;BME280;68599;49.142;9.124;2024-01-30T05:27:40;101166.64;;;0.79;76.15
79174;BME280;68599;49.142;9.124;2024-01-30T05:30:08;101169.44;;;0.74;76.97
79174;BME280;68599;49.142;9.124;2024-01-30T05:32:35;101170.61;;;0.73;75.21
79174;BME280;68599;49.142;9.124;2024-01-30T05:35:02;101172.98;;;0.71;75.77
79174;BME280;68599;49.142;9.124;2024-01-30T05:37:29;101173.80;;;0.69;76.55
79174;BME280;68599;49.142;9.124;2024-01-30T05:39:56;101173.65;;;0.63;76.80
79174;BME280;68599;49.142;9.124;2024-01-30T05:42:23;101174.49;;;0.62;77.20
79174;BME280;68599;49.142;9.124;2024-01-30T05:44:49;101177.02;;;0.59;77.26
79174;BME280;68599;49.142;9.124;2024-01-30T05:47:16;101179.94;;;0.57;77.76
79174;BME280;68599;49.142;9.124;2024-01-30T05:49:42;101181.56;;;0.58;76.85
79174;BME280;68599;49.142;9.124;2024-01-30T05:52:09;101185.57;;;0.56;77.77
79174;BME280;68599;49.142;9.124;2024-01-30T05:54:36;101184.73;;;0.57;77.37
79174;BME280;68599;49.142;9.124;2024-01-30T05:57:03;101187.77;;;0.57;77.08
79174;BME280;68599;49.142;9.124;2024-01-30T05:59:29;101190.07;;;0.57;77.39
79174;BME280;68599;49.142;9.124;2024-01-30T06:01:56;101193.26;;;0.57;77.60
79174;BME280;68599;49.142;9.124;2024-01-30T06:04:23;101193.64;;;0.58;77.25
79174;BME280;68599;49.142;9.124;2024-01-30T06:06:50;101194.13;;;0.61;76.42
79174;BME280;68599;49.142;9.124;2024-01-30T06:09:17;101193.23;;;0.64;76.77
79174;BME280;68599;49.142;9.124;2024-01-30T06:11:43;101190.03;;;0.67;75.62
79174;BME280;68599;49.142;9.124;2024-01-30T06:14:10;101194.27;;;0.64;77.16
79174;BME280;68599;49.142;9.124;2024-01-30T06:16:36;101190.98;;;0.61;76.72
79174;BME280;68599;49.142;9.124;2024-01-30T06:19:03;101192.11;;;0.63;76.48
79174;BME280;68599;49.142;9.124;2024-01-30T06:21:30;101189.88;;;0.60;77.15
79174;BME280;68599;49.142;9.124;2024-01-30T06:23:58;101188.31;;;0.58;77.67
79174;BME280;68599;49.142;9.124;2024-01-30T06:26:24;101188.84;;;0.54;78.00
79174;BME280;68599;49.142;9.124;2024-01-30T06:28:51;101188.51;;;0.54;78.13
79174;BME280;68599;49.142;9.124;2024-01-30T06:31:17;101187.45;;;0.58;77.06
79174;BME280;68599;49.142;9.124;2024-01-30T06:33:49;101182.61;;;0.61;76.98
79174;BME280;68599;49.142;9.124;2024-01-30T06:36:16;101179.77;;;0.64;76.66
79174;BME280;68599;49.142;9.124;2024-01-30T06:38:42;101182.84;;;0.69;76.10
79174;BME280;68599;49.142;9.124;2024-01-30T06:41:09;101186.89;;;0.68;76.50
79174;BME280;68599;49.142;9.124;2024-01-30T06:43:35;101184.77;;;0.69;76.57
79174;BME280;68599;49.142;9.124;2024-01-30T06:46:02;101182.80;;;0.72;75.59
79174;BME280;68599;49.142;9.124;2024-01-30T06:48:28;101185.83;;;0.72;75.69
79174;BME280;68599;49.142;9.124;2024-01-30T06:50:56;101189.13;;;0.75;75.57
79174;BME280;68599;49.142;9.124;2024-01-30T06:53:24;101190.91;;;0.75;76.41
79174;BME280;68599;49.142;9.124;2024-01-30T06:55:52;101192.83;;;0.74;76.90
79174;BME280;68599;49.142;9.124;2024-01-30T06:58:18;101193.60;;;0.76;76.49
79174;BME280;68599;49.142;9.124;2024-01-30T07:00:45;101193.21;;;0.78;75.90
79174;BME280;68599;49.142;9.124;2024-01-30T07:03:12;101190.81;;;0.80;76.07
79174;BME280;68599;49.142;9.124;2024-01-30T07:05:38;101190.57;;;0.78;77.09
79174;BME280;68599;49.142;9.124;2024-01-30T07:08:05;101193.32;;;0.77;76.68
79174;BME280;68599;49.142;9.124;2024-01-30T07:10:32;101192.12;;;0.78;77.00
79174;BME280;68599;49.142;9.124;2024-01-30T07:13:02;101193.11;;;0.88;76.36
79174;BME280;68599;49.142;9.124;2024-01-30T07:15:31;101190.32;;;0.93;76.89
79174;BME280;68599;49.142;9.124;2024-01-30T07:17:57;101192.73;;;0.99;76.50
79174;BME280;68599;49.142;9.124;2024-01-30T07:20:24;101193.31;;;1.04;75.59
79174;BME280;68599;49.142;9.124;2024-01-30T07:22:51;101196.98;;;1.06;75.66
79174;BME280;68599;49.142;9.124;2024-01-30T07:25:18;101193.55;;;1.05;76.58
79174;BME280;68599;49.142;9.124;2024-01-30T07:27:44;101194.02;;;1.11;75.83
79174;BME280;68599;49.142;9.124;2024-01-30T07:30:13;101189.83;;;1.21;75.75
79174;BME280;68599;49.142;9.124;2024-01-30T07:32:40;101190.75;;;1.25;75.85
79174;BME280;68599;49.142;9.124;2024-01-30T07:35:07;101191.83;;;1.38;74.84
79174;BME280;68599;49.142;9.124;2024-01-30T07:37:35;101195.48;;;1.44;74.93
79174;BME280;68599;49.142;9.124;2024-01-30T07:40:02;101196.27;;;1.50;75.07
79174;BME280;68599;49.142;9.124;2024-01-30T07:42:30;101197.02;;;1.66;74.48
79174;BME280;68599;49.142;9.124;2024-01-30T07:44:57;101197.06;;;1.76;74.47
79174;BME280;68599;49.142;9.124;2024-01-30T07:47:24;101196.44;;;1.82;74.32
79174;BME280;68599;49.142;9.124;2024-01-30T07:49:51;101196.85;;;1.87;74.43
79174;BME280;68599;49.142;9.124;2024-01-30T07:52:18;101196.08;;;1.98;74.32
79174;BME280;68599;49.142;9.124;2024-01-30T07:54:45;101197.48;;;2.19;73.56
79174;BME280;68599;49.142;9.124;2024-01-30T07:57:11;101190.58;;;2.46;73.08
79174;BME280;68599;49.142;9.124;2024-01-30T07:59:38;101185.43;;;2.60;72.66
79174;BME280;68599;49.142;9.124;2024-01-30T08:02:05;101188.11;;;2.82;71.99
79174;BME280;68599;49.142;9.124;2024-01-30T08:04:32;101185.33;;;3.17;71.49
79174;BME280;68599;49.142;9.124;2024-01-30T08:06:58;101184.78;;;3.41;71.13
79174;BME280;68599;49.142;9.124;2024-01-30T08:09:25;101185.02;;;3.62;70.41
79174;BME280;68599;49.142;9.124;2024-01-30T08:11:52;101181.99;;;3.88;69.33
79174;BME280;68599;49.142;9.124;2024-01-30T08:14:18;101183.58;;;3.97;68.88
79174;BME280;68599;49.142;9.124;2024-01-30T08:16:45;101186.48;;;4.04;68.57
79174;BME280;68599;49.142;9.124;2024-01-30T08:19:11;101190.27;;;4.16;67.63
79174;BME280;68599;49.142;9.124;2024-01-30T08:21:38;101191.21;;;4.34;67.78
79174;BME280;68599;49.142;9.124;2024-01-30T08:24:06;101192.95;;;4.37;67.01
79174;BME280;68599;49.142;9.124;2024-01-30T08:26:33;101188.79;;;4.57;66.46
79174;BME280;68599;49.142;9.124;2024-01-30T08:29:01;101187.90;;;5.22;65.37
79174;BME280;68599;49.142;9.124;2024-01-30T08:31:28;101187.55;;;6.20;62.16
79174;BME280;68599;49.142;9.124;2024-01-30T08:33:55;101180.77;;;7.22;61.77
79174;BME280;68599;49.142;9.124;2024-01-30T08:36:22;101186.64;;;8.19;58.93
79174;BME280;68599;49.142;9.124;2024-01-30T08:38:48;101183.65;;;8.78;57.81
79174;BME280;68599;49.142;9.124;2024-01-30T08:41:15;101183.73;;;9.36;55.30
79174;BME280;68599;49.142;9.124;2024-01-30T08:43:42;101187.77;;;9.90;52.01
79174;BME280;68599;49.142;9.124;2024-01-30T08:46:08;101186.50;;;10.25;52.20
79174;BME280;68599;49.142;9.124;2024-01-30T08:48:35;101191.12;;;10.36;54.49
79174;BME280;68599;49.142;9.124;2024-01-30T08:51:02;101190.58;;;10.17;54.43
79174;BME280;68599;49.142;9.124;2024-01-30T08:53:29;101191.09;;;9.65;52.57
79174;BME280;68599;49.142;9.124;2024-01-30T08:55:55;101192.05;;;9.26;52.95
79174;BME280;68599;49.142;9.124;2024-01-30T08:58:22;101194.06;;;9.15;53.97
79174;BME280;68599;49.142;9.124;2024-01-30T09:00:49;101195.79;;;8.62;53.93
79174;BME280;68599;49.142;9.124;2024-01-30T09:03:15;101195.86;;;8.44;53.79
79174;BME280;68599;49.142;9.124;2024-01-30T09:05:42;101196.89;;;8.62;54.74
79174;BME280;68599;49.142;9.124;2024-01-30T09:08:09;101194.83;;;8.69;53.69
79174;BME280;68599;49.142;9.124;2024-01-30T09:10:37;101196.98;;;8.69;53.17
79174;BME280;68599;49.142;9.124;2024-01-30T09:13:04;101193.02;;;9.04;52.52
79174;BME280;68599;49.142;9.124;2024-01-30T09:15:30;101196.61;;;9.93;50.77
79174;BME280;68599;49.142;9.124;2024-01-30T09:17:57;101191.20;;;10.69;48.11
79174;BME280;68599;49.142;9.124;2024-01-30T09:20:24;101186.80;;;11.15;46.74
79174;BME280;68599;49.142;9.124;2024-01-30T09:22:50;101189.88;;;11.58;45.51
79174;BME280;68599;49.142;9.124;2024-01-30T09:25:17;101186.61;;;12.29;45.85
79174;BME280;68599;49.142;9.124;2024-01-30T09:27:45;101187.80;;;13.11;44.00
79174;BME280;68599;49.142;9.124;2024-01-30T09:30:12;101187.14;;;13.87;41.72
79174;BME280;68599;49.142;9.124;2024-01-30T09:32:39;101180.86;;;14.07;41.30
79174;BME280;68599;49.142;9.124;2024-01-30T09:35:07;101184.01;;;14.24;40.95
79174;BME280;68599;49.142;9.124;2024-01-30T09:37:34;101184.11;;;14.33;40.40
79174;BME280;68599;49.142;9.124;2024-01-30T09:40:01;101186.05;;;14.19;39.83
79174;BME280;68599;49.142;9.124;2024-01-30T09:42:33;101189.60;;;14.00;40.42
79174;BME280;68599;49.142;9.124;2024-01-30T09:45:05;101190.98;;;13.81;41.00
79174;BME280;68599;49.142;9.124;2024-01-30T09:47:39;101193.46;;;13.91;40.81
79174;BME280;68599;49.142;9.124;2024-01-30T09:50:09;101189.80;;;13.66;41.02
79174;BME280;68599;49.142;9.124;2024-01-30T09:52:36;101193.79;;;13.08;42.06
79174;BME280;68599;49.142;9.124;2024-01-30T09:55:05;101198.55;;;12.47;42.99
79174;BME280;68599;49.142;9.124;2024-01-30T09:57:32;101201.39;;;12.03;44.29
79174;BME280;68599;49.142;9.124;2024-01-30T09:59:59;101203.41;;;11.57;45.19
79174;BME280;68599;49.142;9.124;2024-01-30T10:02:25;101203.55;;;11.47;45.87
79174;BME280;68599;49.142;9.124;2024-01-30T10:04:52;101203.51;;;11.74;45.78
79174;BME280;68599;49.142;9.124;2024-01-30T10:07:19;101205.52;;;11.44;46.37
79174;BME280;68599;49.142;9.124;2024-01-30T10:09:47;101203.77;;;11.17;46.83
79174;BME280;68599;49.142;9.124;2024-01-30T10:12:15;101203.16;;;10.80;47.15
79174;BME280;68599;49.142;9.124;2024-01-30T10:14:42;101204.96;;;10.17;48.71
79174;BME280;68599;49.142;9.124;2024-01-30T10:17:10;101207.45;;;9.80;49.07
79174;BME280;68599;49.142;9.124;2024-01-30T10:19:49;101205.91;;;9.27;50.63
79174;BME280;68599;49.142;9.124;2024-01-30T10:22:17;101203.23;;;8.89;52.48
79174;BME280;68599;49.142;9.124;2024-01-30T10:24:44;101200.83;;;8.73;52.80
79174;BME280;68599;49.142;9.124;2024-01-30T10:27:12;101201.18;;;8.61;53.14
79174;BME280;68599;49.142;9.124;2024-01-30T10:29:38;101201.87;;;8.71;53.04
79174;BME280;68599;49.142;9.124;2024-01-30T10:32:05;101197.31;;;8.91;52.53
79174;BME280;68599;49.142;9.124;2024-01-30T10:34:33;101194.63;;;9.03;52.56
79174;BME280;68599;49.142;9.124;2024-01-30T10:39:38;101197.88;;;9.19;52.20
79174;BME280;68599;49.142;9.124;2024-01-30T10:42:06;101197.86;;;9.17;52.02
79174;BME280;68599;49.142;9.124;2024-01-30T10:44:39;101195.23;;;9.09;52.78
79174;BME280;68599;49.142;9.124;2024-01-30T10:47:12;101195.64;;;9.26;52.75
79174;BME280;68599;49.142;9.124;2024-01-30T10:49:41;101192.67;;;9.45;52.14
79174;BME280;68599;49.142;9.124;2024-01-30T10:52:11;101199.24;;;9.40;52.75
79174;BME280;68599;49.142;9.124;2024-01-30T10:54:40;101201.10;;;9.60;52.42
79174;BME280;68599;49.142;9.124;2024-01-30T10:57:10;101193.71;;;9.91;51.53
79174;BME280;68599;49.142;9.124;2024-01-30T10:59:38;101196.98;;;9.94;51.65
79174;BME280;68599;49.142;9.124;2024-01-30T11:02:05;101192.98;;;9.90;51.84
79174;BME280;68599;49.142;9.124;2024-01-30T11:04:41;101190.98;;;9.73;52.63
79174;BME280;68599;49.142;9.124;2024-01-30T11:07:17;101194.95;;;9.71;52.49
79174;BME280;68599;49.142;9.124;2024-01-30T11:09:51;101193.38;;;9.61;53.03
79174;BME280;68599;49.142;9.124;2024-01-30T11:12:22;101199.63;;;9.56;52.96
79174;BME280;68599;49.142;9.124;2024-01-30T11:15:03;101195.96;;;9.37;53.13
79174;BME280;68599;49.142;9.124;2024-01-30T11:17:53;101200.03;;;9.05;54.73
79174;BME280;68599;49.142;9.124;2024-01-30T11:20:29;101193.08;;;8.96;54.76
79174;BME280;68599;49.142;9.124;2024-01-30T11:22:59;101193.85;;;8.86;55.15
79174;BME280;68599;49.142;9.124;2024-01-30T11:25:31;101189.97;;;8.93;55.01
79174;BME280;68599;49.142;9.124;2024-01-30T11:27:58;101189.23;;;9.04;54.31
79174;BME280;68599;49.142;9.124;2024-01-30T11:30:27;101188.64;;;9.12;54.36
79174;BME280;68599;49.142;9.124;2024-01-30T11:35:36;101189.89;;;8.99;54.32
79174;BME280;68599;49.142;9.124;2024-01-30T11:38:04;101183.91;;;8.96;54.94
79174;BME280;68599;49.142;9.124;2024-01-30T11:40:32;101180.27;;;9.06;54.82
79174;BME280;68599;49.142;9.124;2024-01-30T11:43:02;101179.49;;;9.15;54.76
79174;BME280;68599;49.142;9.124;2024-01-30T11:45:30;101179.56;;;9.20;54.77
79174;BME280;68599;49.142;9.124;2024-01-30T11:47:58;101169.98;;;9.44;54.18
79174;BME280;68599;49.142;9.124;2024-01-30T11:50:31;101172.48;;;9.58;54.04
79174;BME280;68599;49.142;9.124;2024-01-30T11:53:02;101168.45;;;9.67;54.08
79174;BME280;68599;49.142;9.124;2024-01-30T11:55:29;101163.65;;;9.91;53.40
79174;BME280;68599;49.142;9.124;2024-01-30T11:58:00;101158.27;;;9.94;53.34
79174;BME280;68599;49.142;9.124;2024-01-30T12:00:27;101156.83;;;10.12;53.23
79174;BME280;68599;49.142;9.124;2024-01-30T12:02:55;101159.18;;;10.31;52.95
79174;BME280;68599;49.142;9.124;2024-01-30T12:05:25;101154.74;;;10.37;52.52
79174;BME280;68599;49.142;9.124;2024-01-30T12:07:53;101143.48;;;10.51;52.52
79174;BME280;68599;49.142;9.124;2024-01-30T12:10:21;101144.46;;;10.37;52.18
79174;BME280;68599;49.142;9.124;2024-01-30T12:12:49;101145.13;;;10.32;52.58
79174;BME280;68599;49.142;9.124;2024-01-30T12:15:18;101144.30;;;10.39;52.47
79174;BME280;68599;49.142;9.124;2024-01-30T12:17:48;101140.39;;;10.47;52.40
79174;BME280;68599;49.142;9.124;2024-01-30T12:20:17;101139.09;;;10.42;52.25
79174;BME280;68599;49.142;9.124;2024-01-30T12:22:46;101138.55;;;10.42;52.29
79174;BME280;68599;49.142;9.124;2024-01-30T12:25:16;101133.53;;;10.47;52.35
79174;BME280;68599;49.142;9.124;2024-01-30T12:27:45;101131.17;;;10.44;52.70
79174;BME280;68599;49.142;9.124;2024-01-30T12:30:13;101121.30;;;10.49;52.60
79174;BME280;68599;49.142;9.124;2024-01-30T12:32:42;101118.53;;;10.40;52.86
79174;BME280;68599;49.142;9.124;2024-01-30T12:35:10;101118.66;;;10.61;52.42
79174;BME280;68599;49.142;9.124;2024-01-30T12:37:38;101122.37;;;11.11;51.37
79174;BME280;68599;49.142;9.124;2024-01-30T12:40:07;101125.45;;;11.71;50.45
79174;BME280;68599;49.142;9.124;2024-01-30T12:42:37;101128.06;;;12.38;48.58
79174;BME280;68599;49.142;9.124;2024-01-30T12:45:06;101131.56;;;13.01;46.96
79174;BME280;68599;49.142;9.124;2024-01-30T12:47:32;101128.27;;;13.19;46.48
79174;BME280;68599;49.142;9.124;2024-01-30T12:49:59;101123.77;;;13.03;46.28
79174;BME280;68599;49.142;9.124;2024-01-30T12:52:26;101118.06;;;12.71;46.87
79174;BME280;68599;49.142;9.124;2024-01-30T12:54:53;101118.98;;;12.72;47.91
79174;BME280;68599;49.142;9.124;2024-01-30T12:57:20;101113.05;;;12.50;48.15
79174;BME280;68599;49.142;9.124;2024-01-30T12:59:47;101106.20;;;12.26;48.48
79174;BME280;68599;49.142;9.124;2024-01-30T13:02:14;101107.84;;;12.09;48.61
79174;BME280;68599;49.142;9.124;2024-01-30T13:04:41;101103.30;;;11.89;48.87